CST,Max TemperatureF,Mean TemperatureF,Min TemperatureF,Max Dew PointF,MeanDew PointF,Min DewpointF,Max Humidity, Mean Humidity, Min Humidity, Max Sea Level PressureIn, Mean Sea Level PressureIn, Min Sea Level PressureIn, Max VisibilityMiles, Mean VisibilityMiles, Min VisibilityMiles, Max Wind SpeedMPH, Mean Wind SpeedMPH, Max Gust SpeedMPH,PrecipitationIn, CloudCover, Events, WindDirDegrees
2012-12-1,,,,,,,,,,,,,,,,,,,,,,
2012-12-2,,,,,,,,,,,,,,,,,,,,,,
2012-12-3,,,,,,,,,,,,,,,,,,,,,,
2012-12-4,,,,,,,,,,,,,,,,,,,,,,
2012-12-5,64,53,42,46,39,31,82,60,42,30.29,30.18,30.06,10,10,10,9,4,,0.00,2,,105
2012-12-6,64,54,45,52,48,44,97,83,56,30.06,29.93,29.83,10,8,0,14,7,23,0.00,4,Fog-Rain,129
2012-12-7,73,62,50,56,49,40,97,74,33,29.88,29.84,29.77,10,7,1,10,6,17,0.00,5,,171
2012-12-8,68,58,47,57,50,46,95,76,51,29.93,29.85,29.80,10,8,3,8,3,,0.00,6,,234
2012-12-9,72,56,40,64,50,19,94,72,41,30.00,29.83,29.75,10,9,5,21,10,32,0.00,5,,290
2012-12-10,42,34,26,24,15,10,88,48,31,30.13,30.08,29.98,10,10,2,22,13,29,0.00,2,Snow,335
2012-12-11,47,32,18,20,14,10,76,47,23,30.25,30.17,30.10,10,10,10,8,4,,0.00,0,,134
2012-12-12,53,36,19,21,12,5,80,43,15,30.34,30.27,30.22,10,10,7,12,4,,0.00,0,,157
2012-12-13,61,44,28,21,18,12,64,39,19,30.34,30.27,30.19,10,10,10,10,6,17,0.00,0,,142
2012-12-14,53,45,37,48,31,21,87,58,37,30.22,30.07,29.84,10,10,4,17,6,23,0.00,7,Rain,124
2012-12-15,70,60,51,53,40,29,97,55,22,29.90,29.83,29.77,10,9,4,24,10,30,0.00,1,Rain,212
2012-12-16,70,62,53,39,36,30,58,44,23,29.81,29.74,29.66,10,10,10,12,7,,0.00,0,,232
2012-12-17,57,48,40,41,35,32,89,63,38,29.86,29.81,29.71,10,10,5,13,8,18,0.00,1,,275
2012-12-18,71,52,33,37,33,31,93,57,23,29.84,29.80,29.75,10,10,10,8,4,,0.00,0,,135
2012-12-19,74,60,45,61,51,32,81,68,37,29.79,29.68,29.52,10,10,7,20,7,31,0.00,6,,140
2012-12-20,50,41,32,31,14,1,62,37,15,30.38,30.18,29.81,10,10,10,31,19,43,0.00,2,,307
2012-12-21,62,44,27,19,13,9,53,32,12,30.44,30.35,30.27,10,10,10,9,5,,0.00,0,,241
2012-12-22,63,46,28,41,26,12,69,45,15,30.29,30.18,30.03,10,10,10,17,5,24,0.00,0,,176
2012-12-23,66,54,42,53,44,29,89,67,46,30.02,29.89,29.80,10,10,10,14,7,20,0.00,3,,217
2012-12-24,55,42,30,30,27,24,83,59,31,30.02,29.91,29.83,10,9,5,12,7,17,0.00,0,,328
2012-12-25,48,38,27,41,33,22,97,86,55,30.06,29.81,29.68,10,6,0,22,10,31,0.00,8,Rain-Snow-Thunderstorm,19
2012-12-26,33,27,21,24,20,15,88,76,64,30.24,30.14,30.06,10,10,10,24,14,30,0.00,1,,334
2012-12-27,33,28,23,32,27,23,97,93,88,30.14,30.04,29.94,10,6,0,12,7,16,0.00,7,Fog,112
2012-12-28,38,33,28,36,31,20,98,88,71,30.15,29.98,29.89,10,8,2,17,8,24,0.00,7,Rain,341
2012-12-29,43,32,21,19,16,13,73,55,34,30.44,30.34,30.16,10,10,10,12,7,17,0.00,0,,309
2012-12-30,42,31,20,32,23,17,89,68,43,30.47,30.37,30.24,10,10,10,9,4,,0.00,2,Rain,130
2012-12-31,39,37,35,39,35,29,99,90,67,30.25,30.08,29.99,10,6,0,13,5,20,0.00,8,Fog-Rain,95